sensor_id;sensor_type;location;lat;lon;timestamp;P1;durP1;ratioP1;P2;durP2;ratioP2
4084;SDS011;2057;50.858;6.572;2023-05-10T00:00:38;16.37;;;14.40;;
4084;SDS011;2057;50.858;6.572;2023-05-10T00:03:03;19.30;;;15.60;;
4084;SDS011;2057;50.858;6.572;2023-05-10T00:05:29;17.73;;;15.20;;
4084;SDS011;2057;50.858;6.572;2023-05-10T00:07:55;21.43;;;17.27;;
4084;SDS011;2057;50.858;6.572;2023-05-10T00:10:20;20.60;;;16.70;;
4084;SDS011;2057;50.858;6.572;2023-05-10T00:12:46;18.70;;;14.80;;
4084;SDS011;2057;50.858;6.572;2023-05-10T00:15:11;22.20;;;18.00;;
4084;SDS011;2057;50.858;6.572;2023-05-10T00:17:36;19.20;;;15.97;;
4084;SDS011;2057;50.858;6.572;2023-05-10T00:20:02;18.07;;;16.07;;
4084;SDS011;2057;50.858;6.572;2023-05-10T00:22:29;20.03;;;16.67;;
4084;SDS011;2057;50.858;6.572;2023-05-10T00:24:55;20.13;;;17.93;;
4084;SDS011;2057;50.858;6.572;2023-05-10T00:27:20;23.43;;;16.97;;
4084;SDS011;2057;50.858;6.572;2023-05-10T00:29:46;21.57;;;17.10;;
4084;SDS011;2057;50.858;6.572;2023-05-10T00:32:11;20.40;;;17.07;;
4084;SDS011;2057;50.858;6.572;2023-05-10T00:34:36;22.53;;;17.93;;
4084;SDS011;2057;50.858;6.572;2023-05-10T00:37:01;20.73;;;17.50;;
4084;SDS011;2057;50.858;6.572;2023-05-10T00:39:27;22.90;;;18.20;;
4084;SDS011;2057;50.858;6.572;2023-05-10T00:41:53;18.70;;;14.97;;
4084;SDS011;2057;50.858;6.572;2023-05-10T00:44:18;18.27;;;14.93;;
4084;SDS011;2057;50.858;6.572;2023-05-10T00:46:44;16.80;;;13.33;;
4084;SDS011;2057;50.858;6.572;2023-05-10T00:49:10;15.40;;;12.30;;
4084;SDS011;2057;50.858;6.572;2023-05-10T00:51:36;16.90;;;13.17;;
4084;SDS011;2057;50.858;6.572;2023-05-10T00:54:02;14.47;;;11.17;;
4084;SDS011;2057;50.858;6.572;2023-05-10T00:56:27;11.97;;;10.00;;
4084;SDS011;2057;50.858;6.572;2023-05-10T00:58:54;14.30;;;9.13;;
4084;SDS011;2057;50.858;6.572;2023-05-10T01:01:20;12.33;;;10.10;;
4084;SDS011;2057;50.858;6.572;2023-05-10T01:03:46;11.07;;;9.43;;
4084;SDS011;2057;50.858;6.572;2023-05-10T01:06:12;10.07;;;8.63;;
4084;SDS011;2057;50.858;6.572;2023-05-10T01:08:37;12.77;;;9.50;;
4084;SDS011;2057;50.858;6.572;2023-05-10T01:11:03;12.20;;;9.40;;
4084;SDS011;2057;50.858;6.572;2023-05-10T01:13:35;10.57;;;9.47;;
4084;SDS011;2057;50.858;6.572;2023-05-10T01:16:02;12.70;;;10.77;;
4084;SDS011;2057;50.858;6.572;2023-05-10T01:18:29;15.37;;;11.13;;
4084;SDS011;2057;50.858;6.572;2023-05-10T01:21:00;16.87;;;11.17;;
4084;SDS011;2057;50.858;6.572;2023-05-10T01:40:26;15.43;;;10.03;;
4084;SDS011;2057;50.858;6.572;2023-05-10T01:43:02;11.33;;;9.97;;
4084;SDS011;2057;50.858;6.572;2023-05-10T01:45:33;16.23;;;9.00;;
4084;SDS011;2057;50.858;6.572;2023-05-10T01:48:10;12.97;;;8.73;;
4084;SDS011;2057;50.858;6.572;2023-05-10T01:50:38;13.87;;;10.00;;
4084;SDS011;2057;50.858;6.572;2023-05-10T01:53:08;10.47;;;9.30;;
4084;SDS011;2057;50.858;6.572;2023-05-10T01:55:39;12.67;;;9.63;;
4084;SDS011;2057;50.858;6.572;2023-05-10T01:58:13;12.43;;;10.00;;
4084;SDS011;2057;50.858;6.572;2023-05-10T02:00:40;15.20;;;10.80;;
4084;SDS011;2057;50.858;6.572;2023-05-10T02:03:08;15.63;;;12.17;;
4084;SDS011;2057;50.858;6.572;2023-05-10T02:05:36;20.57;;;11.90;;
4084;SDS011;2057;50.858;6.572;2023-05-10T02:08:05;16.70;;;12.33;;
4084;SDS011;2057;50.858;6.572;2023-05-10T02:10:32;17.43;;;12.63;;
4084;SDS011;2057;50.858;6.572;2023-05-10T02:12:59;16.87;;;11.73;;
4084;SDS011;2057;50.858;6.572;2023-05-10T02:15:25;18.13;;;12.40;;
4084;SDS011;2057;50.858;6.572;2023-05-10T02:17:52;17.40;;;11.00;;
4084;SDS011;2057;50.858;6.572;2023-05-10T02:20:20;25.10;;;12.07;;
4084;SDS011;2057;50.858;6.572;2023-05-10T02:25:22;20.23;;;12.17;;
4084;SDS011;2057;50.858;6.572;2023-05-10T02:27:48;18.87;;;13.10;;
4084;SDS011;2057;50.858;6.572;2023-05-10T03:47:50;27.03;;;15.13;;
4084;SDS011;2057;50.858;6.572;2023-05-10T03:55:25;20.90;;;14.50;;
4084;SDS011;2057;50.858;6.572;2023-05-10T04:03:01;30.33;;;16.17;;
4084;SDS011;2057;50.858;6.572;2023-05-10T04:05:26;27.67;;;17.50;;
4084;SDS011;2057;50.858;6.572;2023-05-10T04:07:52;29.60;;;17.00;;
4084;SDS011;2057;50.858;6.572;2023-05-10T04:10:17;26.63;;;16.60;;
4084;SDS011;2057;50.858;6.572;2023-05-10T05:04:00;31.50;;;20.07;;
4084;SDS011;2057;50.858;6.572;2023-05-10T05:06:25;35.10;;;19.23;;
4084;SDS011;2057;50.858;6.572;2023-05-10T05:08:52;34.63;;;20.20;;
4084;SDS011;2057;50.858;6.572;2023-05-10T05:11:17;28.83;;;18.27;;
4084;SDS011;2057;50.858;6.572;2023-05-10T05:13:43;31.43;;;18.97;;
4084;SDS011;2057;50.858;6.572;2023-05-10T05:16:08;30.13;;;18.20;;
4084;SDS011;2057;50.858;6.572;2023-05-10T05:18:34;29.43;;;18.47;;
4084;SDS011;2057;50.858;6.572;2023-05-10T05:20:59;31.33;;;18.37;;
4084;SDS011;2057;50.858;6.572;2023-05-10T05:23:25;30.70;;;18.37;;
4084;SDS011;2057;50.858;6.572;2023-05-10T05:25:51;26.90;;;17.70;;
4084;SDS011;2057;50.858;6.572;2023-05-10T05:28:17;28.20;;;15.97;;
4084;SDS011;2057;50.858;6.572;2023-05-10T05:30:46;28.27;;;15.33;;
4084;SDS011;2057;50.858;6.572;2023-05-10T05:33:14;29.33;;;15.67;;
4084;SDS011;2057;50.858;6.572;2023-05-10T05:35:42;27.57;;;15.47;;
4084;SDS011;2057;50.858;6.572;2023-05-10T05:38:12;31.70;;;15.63;;
4084;SDS011;2057;50.858;6.572;2023-05-10T05:40:37;28.00;;;16.30;;
4084;SDS011;2057;50.858;6.572;2023-05-10T05:43:03;29.10;;;15.40;;
4084;SDS011;2057;50.858;6.572;2023-05-10T05:45:28;30.03;;;15.90;;
4084;SDS011;2057;50.858;6.572;2023-05-10T05:47:53;21.77;;;14.27;;
4084;SDS011;2057;50.858;6.572;2023-05-10T05:50:19;32.20;;;15.30;;
4084;SDS011;2057;50.858;6.572;2023-05-10T05:52:44;27.13;;;15.00;;
4084;SDS011;2057;50.858;6.572;2023-05-10T05:55:09;24.77;;;14.73;;
4084;SDS011;2057;50.858;6.572;2023-05-10T05:57:34;32.43;;;15.47;;
4084;SDS011;2057;50.858;6.572;2023-05-10T06:00:00;28.70;;;15.63;;
4084;SDS011;2057;50.858;6.572;2023-05-10T06:02:25;30.30;;;15.70;;
4084;SDS011;2057;50.858;6.572;2023-05-10T06:04:51;30.87;;;16.17;;
4084;SDS011;2057;50.858;6.572;2023-05-10T06:07:16;27.93;;;15.80;;
4084;SDS011;2057;50.858;6.572;2023-05-10T06:09:41;27.93;;;16.53;;
4084;SDS011;2057;50.858;6.572;2023-05-10T06:12:07;26.23;;;15.87;;
4084;SDS011;2057;50.858;6.572;2023-05-10T06:14:32;35.97;;;16.67;;
4084;SDS011;2057;50.858;6.572;2023-05-10T06:16:57;35.53;;;18.03;;
4084;SDS011;2057;50.858;6.572;2023-05-10T06:19:24;35.80;;;18.73;;
4084;SDS011;2057;50.858;6.572;2023-05-10T06:21:51;42.60;;;17.43;;
4084;SDS011;2057;50.858;6.572;2023-05-10T06:24:16;50.40;;;20.50;;
4084;SDS011;2057;50.858;6.572;2023-05-10T06:26:41;43.60;;;18.63;;
4084;SDS011;2057;50.858;6.572;2023-05-10T06:29:07;33.33;;;17.00;;
4084;SDS011;2057;50.858;6.572;2023-05-10T06:31:32;34.20;;;18.37;;
4084;SDS011;2057;50.858;6.572;2023-05-10T06:33:57;34.53;;;16.93;;
4084;SDS011;2057;50.858;6.572;2023-05-10T06:36:22;34.93;;;16.63;;
4084;SDS011;2057;50.858;6.572;2023-05-10T06:38:49;36.20;;;15.90;;
4084;SDS011;2057;50.858;6.572;2023-05-10T06:41:16;30.97;;;13.30;;
4084;SDS011;2057;50.858;6.572;2023-05-10T06:43:41;25.67;;;13.00;;
4084;SDS011;2057;50.858;6.572;2023-05-10T06:46:08;30.87;;;13.53;;
4084;SDS011;2057;50.858;6.572;2023-05-10T06:48:33;20.33;;;11.63;;
4084;SDS011;2057;50.858;6.572;2023-05-10T06:50:59;22.43;;;12.00;;
4084;SDS011;2057;50.858;6.572;2023-05-10T06:53:24;23.63;;;12.30;;
4084;SDS011;2057;50.858;6.572;2023-05-10T06:55:49;29.47;;;13.17;;
4084;SDS011;2057;50.858;6.572;2023-05-10T06:58:15;24.27;;;13.27;;
4084;SDS011;2057;50.858;6.572;2023-05-10T07:00:40;33.40;;;14.53;;
4084;SDS011;2057;50.858;6.572;2023-05-10T07:03:08;22.00;;;12.53;;
4084;SDS011;2057;50.858;6.572;2023-05-10T07:08:09;27.97;;;12.77;;
4084;SDS011;2057;50.858;6.572;2023-05-10T07:10:35;24.03;;;12.93;;
4084;SDS011;2057;50.858;6.572;2023-05-10T07:13:00;21.20;;;12.33;;
4084;SDS011;2057;50.858;6.572;2023-05-10T07:15:26;17.33;;;11.57;;
4084;SDS011;2057;50.858;6.572;2023-05-10T07:17:51;22.07;;;10.80;;
4084;SDS011;2057;50.858;6.572;2023-05-10T07:20:17;22.87;;;10.67;;
4084;SDS011;2057;50.858;6.572;2023-05-10T07:22:42;13.50;;;9.47;;
4084;SDS011;2057;50.858;6.572;2023-05-10T07:25:07;17.70;;;8.93;;
4084;SDS011;2057;50.858;6.572;2023-05-10T07:27:33;16.00;;;6.97;;
4084;SDS011;2057;50.858;6.572;2023-05-10T07:29:58;12.17;;;6.63;;
4084;SDS011;2057;50.858;6.572;2023-05-10T07:32:24;22.30;;;10.23;;
4084;SDS011;2057;50.858;6.572;2023-05-10T07:34:49;16.40;;;10.63;;
4084;SDS011;2057;50.858;6.572;2023-05-10T07:37:14;9.60;;;6.40;;
4084;SDS011;2057;50.858;6.572;2023-05-10T07:39:40;14.70;;;6.53;;
4084;SDS011;2057;50.858;6.572;2023-05-10T07:42:05;9.63;;;4.40;;
4084;SDS011;2057;50.858;6.572;2023-05-10T07:44:30;5.57;;;3.50;;
4084;SDS011;2057;50.858;6.572;2023-05-10T07:46:56;4.20;;;3.37;;
4084;SDS011;2057;50.858;6.572;2023-05-10T07:49:21;5.73;;;3.93;;
4084;SDS011;2057;50.858;6.572;2023-05-10T07:56:59;6.90;;;2.80;;
4084;SDS011;2057;50.858;6.572;2023-05-10T07:59:25;2.83;;;2.50;;
4084;SDS011;2057;50.858;6.572;2023-05-10T08:01:50;2.50;;;2.30;;
4084;SDS011;2057;50.858;6.572;2023-05-10T08:04:15;3.30;;;2.37;;
4084;SDS011;2057;50.858;6.572;2023-05-10T08:06:41;3.43;;;2.30;;
4084;SDS011;2057;50.858;6.572;2023-05-10T08:09:06;3.27;;;2.53;;
4084;SDS011;2057;50.858;6.572;2023-05-10T08:11:32;3.63;;;3.33;;
4084;SDS011;2057;50.858;6.572;2023-05-10T08:13:58;3.30;;;2.43;;
4084;SDS011;2057;50.858;6.572;2023-05-10T08:16:23;3.40;;;3.10;;
4084;SDS011;2057;50.858;6.572;2023-05-10T08:18:48;3.90;;;2.97;;
4084;SDS011;2057;50.858;6.572;2023-05-10T08:21:15;6.43;;;3.77;;
4084;SDS011;2057;50.858;6.572;2023-05-10T08:23:41;6.63;;;4.17;;
4084;SDS011;2057;50.858;6.572;2023-05-10T08:26:06;5.63;;;4.03;;
4084;SDS011;2057;50.858;6.572;2023-05-10T08:28:31;4.53;;;4.13;;
4084;SDS011;2057;50.858;6.572;2023-05-10T08:30:57;4.80;;;3.87;;
4084;SDS011;2057;50.858;6.572;2023-05-10T08:33:22;10.07;;;5.57;;
4084;SDS011;2057;50.858;6.572;2023-05-10T08:35:47;15.77;;;6.57;;
4084;SDS011;2057;50.858;6.572;2023-05-10T08:38:13;17.03;;;10.03;;
4084;SDS011;2057;50.858;6.572;2023-05-10T08:40:39;14.43;;;9.20;;
4084;SDS011;2057;50.858;6.572;2023-05-10T08:43:09;16.33;;;11.80;;
4084;SDS011;2057;50.858;6.572;2023-05-10T08:45:37;23.93;;;13.30;;
4084;SDS011;2057;50.858;6.572;2023-05-10T08:48:08;33.80;;;17.23;;
4084;SDS011;2057;50.858;6.572;2023-05-10T08:50:38;29.37;;;16.90;;
4084;SDS011;2057;50.858;6.572;2023-05-10T08:53:09;35.53;;;18.57;;
4084;SDS011;2057;50.858;6.572;2023-05-10T08:55:36;35.17;;;20.37;;
4084;SDS011;2057;50.858;6.572;2023-05-10T08:58:06;32.30;;;19.37;;
4084;SDS011;2057;50.858;6.572;2023-05-10T09:00:33;36.83;;;21.03;;
4084;SDS011;2057;50.858;6.572;2023-05-10T09:02:59;36.07;;;20.70;;
4084;SDS011;2057;50.858;6.572;2023-05-10T09:05:25;39.10;;;20.83;;
4084;SDS011;2057;50.858;6.572;2023-05-10T09:07:51;33.87;;;17.80;;
4084;SDS011;2057;50.858;6.572;2023-05-10T09:10:16;35.93;;;20.70;;
4084;SDS011;2057;50.858;6.572;2023-05-10T09:12:43;26.33;;;16.00;;
4084;SDS011;2057;50.858;6.572;2023-05-10T09:15:10;25.10;;;16.60;;
4084;SDS011;2057;50.858;6.572;2023-05-10T09:17:36;30.30;;;16.23;;
4084;SDS011;2057;50.858;6.572;2023-05-10T09:20:03;39.70;;;19.80;;
4084;SDS011;2057;50.858;6.572;2023-05-10T09:22:29;36.73;;;22.07;;
4084;SDS011;2057;50.858;6.572;2023-05-10T09:25:08;37.90;;;22.40;;
4084;SDS011;2057;50.858;6.572;2023-05-10T09:27:34;40.73;;;20.20;;
4084;SDS011;2057;50.858;6.572;2023-05-10T09:30:01;43.00;;;21.30;;
4084;SDS011;2057;50.858;6.572;2023-05-10T09:32:40;38.47;;;20.37;;
4084;SDS011;2057;50.858;6.572;2023-05-10T09:35:16;42.00;;;20.60;;
4084;SDS011;2057;50.858;6.572;2023-05-10T09:37:43;32.90;;;18.03;;
4084;SDS011;2057;50.858;6.572;2023-05-10T09:40:16;33.37;;;19.30;;
4084;SDS011;2057;50.858;6.572;2023-05-10T09:42:59;41.67;;;17.10;;
4084;SDS011;2057;50.858;6.572;2023-05-10T09:45:42;30.03;;;15.90;;
4084;SDS011;2057;50.858;6.572;2023-05-10T09:48:08;22.60;;;11.60;;
4084;SDS011;2057;50.858;6.572;2023-05-10T09:50:33;19.70;;;11.07;;
4084;SDS011;2057;50.858;6.572;2023-05-10T09:53:00;15.30;;;9.83;;
4084;SDS011;2057;50.858;6.572;2023-05-10T09:55:41;21.20;;;8.93;;
4084;SDS011;2057;50.858;6.572;2023-05-10T09:58:11;16.13;;;9.80;;
4084;SDS011;2057;50.858;6.572;2023-05-10T10:00:38;9.40;;;7.30;;
4084;SDS011;2057;50.858;6.572;2023-05-10T10:03:05;12.73;;;7.60;;
4084;SDS011;2057;50.858;6.572;2023-05-10T10:05:32;7.33;;;6.27;;
4084;SDS011;2057;50.858;6.572;2023-05-10T10:07:59;8.50;;;5.77;;
4084;SDS011;2057;50.858;6.572;2023-05-10T10:10:26;6.80;;;5.10;;
4084;SDS011;2057;50.858;6.572;2023-05-10T10:12:52;8.10;;;4.40;;
4084;SDS011;2057;50.858;6.572;2023-05-10T10:15:18;10.30;;;6.00;;
4084;SDS011;2057;50.858;6.572;2023-05-10T10:17:44;11.30;;;5.90;;
4084;SDS011;2057;50.858;6.572;2023-05-10T10:20:11;8.87;;;6.67;;
4084;SDS011;2057;50.858;6.572;2023-05-10T10:22:37;10.10;;;7.17;;
4084;SDS011;2057;50.858;6.572;2023-05-10T10:25:03;9.50;;;5.63;;
4084;SDS011;2057;50.858;6.572;2023-05-10T10:30:43;6.17;;;5.57;;
4084;SDS011;2057;50.858;6.572;2023-05-10T10:35:53;8.33;;;7.27;;
4084;SDS011;2057;50.858;6.572;2023-05-10T10:38:20;12.93;;;7.57;;
4084;SDS011;2057;50.858;6.572;2023-05-10T10:40:45;9.90;;;6.70;;
4084;SDS011;2057;50.858;6.572;2023-05-10T10:43:26;8.83;;;6.70;;
4084;SDS011;2057;50.858;6.572;2023-05-10T10:48:41;8.07;;;4.53;;
4084;SDS011;2057;50.858;6.572;2023-05-10T10:51:12;5.60;;;4.47;;
4084;SDS011;2057;50.858;6.572;2023-05-10T10:53:38;16.80;;;3.83;;
4084;SDS011;2057;50.858;6.572;2023-05-10T10:56:09;4.20;;;3.80;;
4084;SDS011;2057;50.858;6.572;2023-05-10T10:58:37;4.27;;;3.83;;
4084;SDS011;2057;50.858;6.572;2023-05-10T11:01:19;4.50;;;3.80;;
4084;SDS011;2057;50.858;6.572;2023-05-10T11:06:33;5.10;;;3.27;;
4084;SDS011;2057;50.858;6.572;2023-05-10T11:09:04;3.63;;;3.20;;
4084;SDS011;2057;50.858;6.572;2023-05-10T11:11:32;5.93;;;3.03;;
4084;SDS011;2057;50.858;6.572;2023-05-10T11:14:07;2.97;;;2.77;;
4084;SDS011;2057;50.858;6.572;2023-05-10T11:16:43;3.20;;;2.80;;
4084;SDS011;2057;50.858;6.572;2023-05-10T11:19:15;6.37;;;2.30;;
4084;SDS011;2057;50.858;6.572;2023-05-10T11:24:36;3.57;;;2.60;;
4084;SDS011;2057;50.858;6.572;2023-05-10T11:27:02;3.70;;;1.90;;
4084;SDS011;2057;50.858;6.572;2023-05-10T11:29:27;6.90;;;2.17;;
4084;SDS011;2057;50.858;6.572;2023-05-10T11:31:53;3.63;;;1.83;;
4084;SDS011;2057;50.858;6.572;2023-05-10T11:34:23;3.27;;;2.10;;
4084;SDS011;2057;50.858;6.572;2023-05-10T11:36:53;1.77;;;1.67;;
4084;SDS011;2057;50.858;6.572;2023-05-10T11:39:20;3.13;;;1.87;;
4084;SDS011;2057;50.858;6.572;2023-05-10T11:41:49;5.63;;;2.00;;
4084;SDS011;2057;50.858;6.572;2023-05-10T11:44:14;2.50;;;2.03;;
4084;SDS011;2057;50.858;6.572;2023-05-10T11:46:40;2.90;;;1.53;;
4084;SDS011;2057;50.858;6.572;2023-05-10T11:49:06;1.70;;;1.60;;
4084;SDS011;2057;50.858;6.572;2023-05-10T11:51:33;1.50;;;1.40;;
4084;SDS011;2057;50.858;6.572;2023-05-10T11:54:00;1.30;;;1.20;;
4084;SDS011;2057;50.858;6.572;2023-05-10T11:56:25;1.73;;;1.63;;
4084;SDS011;2057;50.858;6.572;2023-05-10T11:58:56;3.33;;;2.40;;
4084;SDS011;2057;50.858;6.572;2023-05-10T12:01:28;3.73;;;1.53;;
4084;SDS011;2057;50.858;6.572;2023-05-10T12:03:55;1.40;;;1.30;;
4084;SDS011;2057;50.858;6.572;2023-05-10T12:06:29;2.30;;;1.57;;
4084;SDS011;2057;50.858;6.572;2023-05-10T12:08:56;2.00;;;1.90;;
4084;SDS011;2057;50.858;6.572;2023-05-10T12:11:26;3.53;;;1.60;;
4084;SDS011;2057;50.858;6.572;2023-05-10T12:13:53;1.67;;;1.57;;
4084;SDS011;2057;50.858;6.572;2023-05-10T12:16:20;2.00;;;1.33;;
4084;SDS011;2057;50.858;6.572;2023-05-10T12:18:48;1.63;;;1.53;;
4084;SDS011;2057;50.858;6.572;2023-05-10T12:21:13;2.80;;;1.60;;
4084;SDS011;2057;50.858;6.572;2023-05-10T12:23:40;1.40;;;1.30;;
4084;SDS011;2057;50.858;6.572;2023-05-10T12:26:06;3.37;;;1.73;;
4084;SDS011;2057;50.858;6.572;2023-05-10T12:28:34;1.90;;;1.40;;
4084;SDS011;2057;50.858;6.572;2023-05-10T12:31:01;3.07;;;2.00;;
4084;SDS011;2057;50.858;6.572;2023-05-10T12:33:27;3.87;;;2.20;;
4084;SDS011;2057;50.858;6.572;2023-05-10T12:36:00;1.27;;;1.13;;
4084;SDS011;2057;50.858;6.572;2023-05-10T12:38:34;1.10;;;1.10;;
4084;SDS011;2057;50.858;6.572;2023-05-10T12:41:04;1.43;;;1.20;;
4084;SDS011;2057;50.858;6.572;2023-05-10T12:43:31;1.53;;;1.40;;
4084;SDS011;2057;50.858;6.572;2023-05-10T12:45:57;4.40;;;1.97;;
4084;SDS011;2057;50.858;6.572;2023-05-10T12:48:22;2.03;;;1.30;;
4084;SDS011;2057;50.858;6.572;2023-05-10T12:50:48;1.93;;;1.27;;
4084;SDS011;2057;50.858;6.572;2023-05-10T12:53:14;1.70;;;1.60;;
4084;SDS011;2057;50.858;6.572;2023-05-10T12:55:43;1.57;;;1.33;;
4084;SDS011;2057;50.858;6.572;2023-05-10T12:58:08;4.30;;;1.90;;
4084;SDS011;2057;50.858;6.572;2023-05-10T13:00:33;5.83;;;2.07;;
4084;SDS011;2057;50.858;6.572;2023-05-10T13:02:59;2.60;;;1.90;;
4084;SDS011;2057;50.858;6.572;2023-05-10T13:05:24;2.00;;;1.80;;
4084;SDS011;2057;50.858;6.572;2023-05-10T13:07:50;5.00;;;1.60;;
4084;SDS011;2057;50.858;6.572;2023-05-10T13:10:15;1.50;;;1.40;;
4084;SDS011;2057;50.858;6.572;2023-05-10T13:12:41;1.53;;;1.43;;
4084;SDS011;2057;50.858;6.572;2023-05-10T13:15:06;2.90;;;2.20;;
4084;SDS011;2057;50.858;6.572;2023-05-10T13:17:32;2.90;;;2.70;;
4084;SDS011;2057;50.858;6.572;2023-05-10T13:19:57;4.77;;;1.93;;
4084;SDS011;2057;50.858;6.572;2023-05-10T13:22:23;2.17;;;1.97;;
4084;SDS011;2057;50.858;6.572;2023-05-10T13:24:48;2.40;;;2.30;;
4084;SDS011;2057;50.858;6.572;2023-05-10T13:27:13;3.67;;;2.77;;
4084;SDS011;2057;50.858;6.572;2023-05-10T13:29:39;2.10;;;2.00;;
4084;SDS011;2057;50.858;6.572;2023-05-10T13:32:04;6.43;;;3.07;;
4084;SDS011;2057;50.858;6.572;2023-05-10T13:34:31;2.90;;;2.60;;
4084;SDS011;2057;50.858;6.572;2023-05-10T13:36:56;3.17;;;2.67;;
4084;SDS011;2057;50.858;6.572;2023-05-10T13:39:22;4.53;;;2.53;;
4084;SDS011;2057;50.858;6.572;2023-05-10T13:41:47;4.20;;;2.90;;
4084;SDS011;2057;50.858;6.572;2023-05-10T13:44:13;6.77;;;3.20;;
4084;SDS011;2057;50.858;6.572;2023-05-10T13:46:40;3.63;;;2.97;;
4084;SDS011;2057;50.858;6.572;2023-05-10T13:49:05;3.73;;;3.07;;
4084;SDS011;2057;50.858;6.572;2023-05-10T13:51:31;3.60;;;3.30;;
4084;SDS011;2057;50.858;6.572;2023-05-10T13:53:56;7.43;;;4.10;;
4084;SDS011;2057;50.858;6.572;2023-05-10T13:56:22;5.90;;;2.97;;
4084;SDS011;2057;50.858;6.572;2023-05-10T13:58:48;4.00;;;2.73;;
4084;SDS011;2057;50.858;6.572;2023-05-10T14:01:13;3.47;;;3.17;;
4084;SDS011;2057;50.858;6.572;2023-05-10T14:03:38;4.20;;;3.50;;
4084;SDS011;2057;50.858;6.572;2023-05-10T14:06:04;3.67;;;2.63;;
4084;SDS011;2057;50.858;6.572;2023-05-10T14:08:29;2.90;;;2.40;;
4084;SDS011;2057;50.858;6.572;2023-05-10T14:10:55;5.20;;;3.40;;
4084;SDS011;2057;50.858;6.572;2023-05-10T14:13:21;3.73;;;3.00;;
4084;SDS011;2057;50.858;6.572;2023-05-10T14:15:47;5.63;;;2.83;;
4084;SDS011;2057;50.858;6.572;2023-05-10T14:18:12;4.23;;;3.40;;
4084;SDS011;2057;50.858;6.572;2023-05-10T14:20:37;5.73;;;3.87;;
4084;SDS011;2057;50.858;6.572;2023-05-10T14:23:03;4.33;;;3.10;;
4084;SDS011;2057;50.858;6.572;2023-05-10T14:25:28;8.07;;;3.70;;
4084;SDS011;2057;50.858;6.572;2023-05-10T14:27:53;3.73;;;3.33;;
4084;SDS011;2057;50.858;6.572;2023-05-10T14:30:19;8.60;;;4.40;;
4084;SDS011;2057;50.858;6.572;2023-05-10T14:32:45;5.60;;;2.90;;
4084;SDS011;2057;50.858;6.572;2023-05-10T14:35:11;7.57;;;3.13;;
4084;SDS011;2057;50.858;6.572;2023-05-10T14:37:37;4.43;;;3.27;;
4084;SDS011;2057;50.858;6.572;2023-05-10T14:40:03;3.90;;;3.20;;
4084;SDS011;2057;50.858;6.572;2023-05-10T14:42:29;3.80;;;3.27;;
4084;SDS011;2057;50.858;6.572;2023-05-10T14:44:54;4.47;;;3.67;;
4084;SDS011;2057;50.858;6.572;2023-05-10T14:47:20;2.97;;;2.77;;
4084;SDS011;2057;50.858;6.572;2023-05-10T14:49:45;5.97;;;3.00;;
4084;SDS011;2057;50.858;6.572;2023-05-10T14:52:10;3.53;;;2.70;;
4084;SDS011;2057;50.858;6.572;2023-05-10T14:54:37;5.63;;;3.80;;
4084;SDS011;2057;50.858;6.572;2023-05-10T14:57:02;9.67;;;3.93;;
4084;SDS011;2057;50.858;6.572;2023-05-10T14:59:28;7.10;;;4.70;;
4084;SDS011;2057;50.858;6.572;2023-05-10T15:01:53;9.43;;;4.53;;
4084;SDS011;2057;50.858;6.572;2023-05-10T15:04:18;5.53;;;3.80;;
4084;SDS011;2057;50.858;6.572;2023-05-10T15:06:44;5.67;;;3.60;;
4084;SDS011;2057;50.858;6.572;2023-05-10T15:09:09;6.23;;;3.33;;
4084;SDS011;2057;50.858;6.572;2023-05-10T15:11:35;4.47;;;4.03;;
4084;SDS011;2057;50.858;6.572;2023-05-10T15:14:00;5.90;;;3.57;;
4084;SDS011;2057;50.858;6.572;2023-05-10T15:16:26;4.70;;;3.67;;
4084;SDS011;2057;50.858;6.572;2023-05-10T15:18:52;5.30;;;3.27;;
4084;SDS011;2057;50.858;6.572;2023-05-10T15:21:17;4.60;;;3.30;;
4084;SDS011;2057;50.858;6.572;2023-05-10T15:23:42;4.40;;;3.70;;
4084;SDS011;2057;50.858;6.572;2023-05-10T15:26:08;7.43;;;4.20;;
4084;SDS011;2057;50.858;6.572;2023-05-10T15:28:33;4.87;;;4.23;;
4084;SDS011;2057;50.858;6.572;2023-05-10T15:30:58;6.27;;;4.53;;
4084;SDS011;2057;50.858;6.572;2023-05-10T15:33:25;8.23;;;4.50;;
4084;SDS011;2057;50.858;6.572;2023-05-10T15:35:52;5.00;;;4.60;;
4084;SDS011;2057;50.858;6.572;2023-05-10T15:38:18;20.17;;;5.30;;
4084;SDS011;2057;50.858;6.572;2023-05-10T15:40:44;6.17;;;5.37;;
4084;SDS011;2057;50.858;6.572;2023-05-10T15:43:09;11.53;;;5.43;;
4084;SDS011;2057;50.858;6.572;2023-05-10T15:45:34;9.10;;;4.80;;
4084;SDS011;2057;50.858;6.572;2023-05-10T15:48:00;4.50;;;4.10;;
4084;SDS011;2057;50.858;6.572;2023-05-10T15:50:26;5.93;;;3.60;;
4084;SDS011;2057;50.858;6.572;2023-05-10T15:52:51;4.50;;;3.80;;
4084;SDS011;2057;50.858;6.572;2023-05-10T15:55:16;4.27;;;3.27;;
4084;SDS011;2057;50.858;6.572;2023-05-10T15:57:42;6.40;;;3.17;;
4084;SDS011;2057;50.858;6.572;2023-05-10T16:00:08;3.00;;;2.70;;
4084;SDS011;2057;50.858;6.572;2023-05-10T16:02:35;5.73;;;3.03;;
4084;SDS011;2057;50.858;6.572;2023-05-10T16:05:01;3.47;;;3.03;;
4084;SDS011;2057;50.858;6.572;2023-05-10T16:07:26;3.30;;;2.60;;
4084;SDS011;2057;50.858;6.572;2023-05-10T16:09:52;4.13;;;2.40;;
4084;SDS011;2057;50.858;6.572;2023-05-10T16:12:18;3.77;;;2.70;;
4084;SDS011;2057;50.858;6.572;2023-05-10T16:14:44;4.60;;;2.03;;
4084;SDS011;2057;50.858;6.572;2023-05-10T16:17:09;2.70;;;2.00;;
4084;SDS011;2057;50.858;6.572;2023-05-10T16:19:35;3.13;;;1.87;;
4084;SDS011;2057;50.858;6.572;2023-05-10T16:22:00;5.40;;;2.07;;
4084;SDS011;2057;50.858;6.572;2023-05-10T16:24:26;5.43;;;1.80;;
4084;SDS011;2057;50.858;6.572;2023-05-10T16:26:51;2.57;;;2.10;;
4084;SDS011;2057;50.858;6.572;2023-05-10T16:29:17;2.20;;;1.93;;
4084;SDS011;2057;50.858;6.572;2023-05-10T16:31:42;1.70;;;1.50;;
4084;SDS011;2057;50.858;6.572;2023-05-10T16:34:08;2.60;;;1.73;;
4084;SDS011;2057;50.858;6.572;2023-05-10T16:36:33;2.13;;;1.80;;
4084;SDS011;2057;50.858;6.572;2023-05-10T16:38:59;4.10;;;1.83;;
4084;SDS011;2057;50.858;6.572;2023-05-10T16:41:24;2.93;;;1.47;;
4084;SDS011;2057;50.858;6.572;2023-05-10T16:43:50;2.30;;;2.10;;
4084;SDS011;2057;50.858;6.572;2023-05-10T16:46:15;1.87;;;1.57;;
4084;SDS011;2057;50.858;6.572;2023-05-10T16:48:41;3.10;;;1.60;;
4084;SDS011;2057;50.858;6.572;2023-05-10T16:51:06;4.60;;;1.60;;
4084;SDS011;2057;50.858;6.572;2023-05-10T16:53:32;1.80;;;1.70;;
4084;SDS011;2057;50.858;6.572;2023-05-10T16:55:57;2.50;;;1.50;;
4084;SDS011;2057;50.858;6.572;2023-05-10T16:58:23;1.67;;;1.20;;
4084;SDS011;2057;50.858;6.572;2023-05-10T17:00:48;1.50;;;1.40;;
4084;SDS011;2057;50.858;6.572;2023-05-10T17:03:14;1.83;;;1.27;;
4084;SDS011;2057;50.858;6.572;2023-05-10T17:05:39;1.40;;;1.30;;
4084;SDS011;2057;50.858;6.572;2023-05-10T17:08:05;3.53;;;1.40;;
4084;SDS011;2057;50.858;6.572;2023-05-10T17:10:30;3.43;;;1.30;;
4084;SDS011;2057;50.858;6.572;2023-05-10T17:12:56;6.93;;;1.40;;
4084;SDS011;2057;50.858;6.572;2023-05-10T17:15:21;1.70;;;1.23;;
4084;SDS011;2057;50.858;6.572;2023-05-10T17:17:46;1.30;;;1.20;;
4084;SDS011;2057;50.858;6.572;2023-05-10T17:20:12;1.70;;;1.43;;
4084;SDS011;2057;50.858;6.572;2023-05-10T17:22:37;1.20;;;1.00;;
4084;SDS011;2057;50.858;6.572;2023-05-10T17:25:03;7.53;;;1.37;;
4084;SDS011;2057;50.858;6.572;2023-05-10T17:27:28;12.83;;;1.63;;
4084;SDS011;2057;50.858;6.572;2023-05-10T17:29:55;3.43;;;1.40;;
4084;SDS011;2057;50.858;6.572;2023-05-10T17:32:21;3.47;;;1.30;;
4084;SDS011;2057;50.858;6.572;2023-05-10T17:34:46;2.47;;;1.37;;
4084;SDS011;2057;50.858;6.572;2023-05-10T17:37:11;8.73;;;2.07;;
4084;SDS011;2057;50.858;6.572;2023-05-10T17:39:37;7.67;;;1.70;;
4084;SDS011;2057;50.858;6.572;2023-05-10T17:42:02;10.70;;;1.87;;
4084;SDS011;2057;50.858;6.572;2023-05-10T17:44:28;2.10;;;1.90;;
4084;SDS011;2057;50.858;6.572;2023-05-10T17:46:53;4.00;;;1.97;;
4084;SDS011;2057;50.858;6.572;2023-05-10T17:49:19;4.10;;;2.70;;
4084;SDS011;2057;50.858;6.572;2023-05-10T17:51:44;3.20;;;1.87;;
4084;SDS011;2057;50.858;6.572;2023-05-10T17:54:12;3.40;;;2.33;;
4084;SDS011;2057;50.858;6.572;2023-05-10T17:56:37;7.67;;;3.00;;
4084;SDS011;2057;50.858;6.572;2023-05-10T17:59:03;7.90;;;2.10;;